createdAt,value
2023-04-15T00:00:59.501Z,13.35
2023-04-15T00:03:26.446Z,11.55
2023-04-15T00:05:53.347Z,11.85
2023-04-15T00:08:20.534Z,8.38
2023-04-15T00:10:47.822Z,5.32
2023-04-15T00:15:42.652Z,6.13
2023-04-15T00:20:35.954Z,10.15
2023-04-15T00:23:03.887Z,15.63
2023-04-15T00:25:31.007Z,9.43
2023-04-15T00:27:57.671Z,7.30
2023-04-15T00:30:24.307Z,5.93
2023-04-15T00:32:51.006Z,6.35
2023-04-15T00:35:21.697Z,5.07
2023-04-15T00:37:50.050Z,3.83
2023-04-15T00:40:19.610Z,3.88
2023-04-15T00:42:46.321Z,4.70
2023-04-15T00:47:42.893Z,4.80
2023-04-15T00:50:10.730Z,4.97
2023-04-15T00:52:38.949Z,5.97
2023-04-15T00:55:06.732Z,6.45
2023-04-15T00:57:33.860Z,5.97
2023-04-15T01:00:01.143Z,7.22
2023-04-15T01:04:56.375Z,6.28
2023-04-15T01:07:23.082Z,5.25
2023-04-15T01:09:49.852Z,4.30
2023-04-15T01:12:17.109Z,4.70
2023-04-15T01:17:10.333Z,5.32
2023-04-15T01:19:38.173Z,4.88
2023-04-15T01:22:05.572Z,4.20
2023-04-15T01:24:33.939Z,3.85
2023-04-15T01:27:00.697Z,5.03
2023-04-15T01:29:27.935Z,8.55
2023-04-15T01:34:26.277Z,5.53
2023-04-15T01:36:54.237Z,5.57
2023-04-15T01:39:21.905Z,5.57
2023-04-15T01:41:49.143Z,3.42
2023-04-15T01:44:16.450Z,4.75
2023-04-15T01:46:43.254Z,5.28
2023-04-15T01:49:10.006Z,4.25
2023-04-15T01:51:36.692Z,7.25
2023-04-15T01:54:04.041Z,6.63
2023-04-15T01:58:57.296Z,5.25
2023-04-15T02:01:24.070Z,4.18
2023-04-15T02:03:50.854Z,4.22
2023-04-15T02:06:18.285Z,4.97
2023-04-15T02:11:12.091Z,4.40
2023-04-15T02:13:38.760Z,4.93
2023-04-15T02:16:16.580Z,5.60
2023-04-15T02:18:47.484Z,6.30
2023-04-15T02:21:14.657Z,6.03
2023-04-15T02:24:31.977Z,5.82
2023-04-15T02:26:58.723Z,6.28
2023-04-15T02:29:25.505Z,8.65
2023-04-15T02:31:52.226Z,8.40
2023-04-15T02:34:20.362Z,8.32
2023-04-15T02:36:48.634Z,8.00
2023-04-15T02:39:16.847Z,9.27
2023-04-15T02:41:43.907Z,8.18
2023-04-15T02:44:12.953Z,7.82
2023-04-15T02:46:41.191Z,9.00
2023-04-15T02:49:08.581Z,7.90
2023-04-15T02:51:36.231Z,5.53
2023-04-15T02:54:02.950Z,3.67
2023-04-15T02:56:30.810Z,3.22
2023-04-15T02:58:58.371Z,3.88
2023-04-15T03:01:26.093Z,3.65
2023-04-15T03:03:53.124Z,3.72
2023-04-15T03:06:20.093Z,3.80
2023-04-15T03:08:46.820Z,3.83
2023-04-15T03:11:15.249Z,3.75
2023-04-15T03:13:43.188Z,2.45
2023-04-15T03:16:20.979Z,3.55
2023-04-15T03:18:47.748Z,3.83
2023-04-15T03:21:15.023Z,4.70
2023-04-15T03:23:41.731Z,4.93
2023-04-15T03:26:08.426Z,4.72
2023-04-15T03:28:36.410Z,4.18
2023-04-15T03:31:03.144Z,4.65
2023-04-15T03:33:30.339Z,4.57
2023-04-15T03:35:57.455Z,6.15
2023-04-15T03:38:24.112Z,6.75
2023-04-15T03:40:50.877Z,6.03
2023-04-15T03:43:17.563Z,4.90
2023-04-15T03:45:44.246Z,6.88
2023-04-15T03:48:17.682Z,5.32
2023-04-15T03:50:45.092Z,5.63
2023-04-15T03:53:11.845Z,3.95
2023-04-15T03:55:38.576Z,6.07
2023-04-15T03:58:05.210Z,7.15
2023-04-15T04:00:31.936Z,7.65
2023-04-15T04:02:58.754Z,7.22
2023-04-15T04:05:25.552Z,5.43
2023-04-15T04:07:52.194Z,5.60
2023-04-15T04:10:18.941Z,4.05
2023-04-15T04:12:45.642Z,3.90
2023-04-15T04:15:12.402Z,3.80
2023-04-15T04:17:39.145Z,2.67
2023-04-15T04:20:06.660Z,3.58
2023-04-15T04:22:38.812Z,4.15
2023-04-15T04:25:06.176Z,5.55
2023-04-15T04:29:59.403Z,5.07
2023-04-15T04:32:26.085Z,5.07
2023-04-15T04:34:52.770Z,4.45
2023-04-15T04:37:19.432Z,4.60
2023-04-15T04:39:46.088Z,4.88
2023-04-15T04:42:12.825Z,6.20
2023-04-15T04:44:39.637Z,6.88
2023-04-15T04:47:07.523Z,7.05
2023-04-15T04:49:34.207Z,5.10
2023-04-15T04:52:01.542Z,5.55
2023-04-15T04:54:28.444Z,4.72
2023-04-15T04:56:55.144Z,5.30
2023-04-15T04:59:21.828Z,4.70
2023-04-15T05:01:48.585Z,4.28
2023-04-15T05:04:15.337Z,7.68
2023-04-15T05:06:42.139Z,13.38
2023-04-15T05:09:08.828Z,10.15
2023-04-15T05:11:35.614Z,6.07
2023-04-15T05:14:02.383Z,6.95
2023-04-15T05:16:29.158Z,6.40
2023-04-15T05:18:55.969Z,5.68
2023-04-15T05:21:22.718Z,5.55
2023-04-15T05:23:49.488Z,6.03
2023-04-15T05:26:16.440Z,5.03
2023-04-15T05:28:43.116Z,5.40
2023-04-15T05:31:09.820Z,5.82
2023-04-15T05:33:37.046Z,5.47
2023-04-15T05:36:03.793Z,5.45
2023-04-15T05:38:30.525Z,4.38
2023-04-15T05:40:57.330Z,3.80
2023-04-15T05:43:24.142Z,4.72
2023-04-15T05:45:50.840Z,3.65
2023-04-15T05:48:17.554Z,4.97
2023-04-15T05:50:44.262Z,6.10
2023-04-15T05:53:11.644Z,6.55
2023-04-15T05:58:04.957Z,7.40
2023-04-15T06:00:32.090Z,9.02
2023-04-15T06:02:59.130Z,10.25
2023-04-15T06:05:25.948Z,10.15
2023-04-15T06:07:52.698Z,10.02
2023-04-15T06:10:19.521Z,11.15
2023-04-15T06:12:46.252Z,11.77
2023-04-15T06:15:12.939Z,5.30
2023-04-15T06:17:39.629Z,4.00
2023-04-15T06:20:08.492Z,4.55
2023-04-15T06:22:36.781Z,3.75
2023-04-15T06:25:03.682Z,3.13
2023-04-15T06:27:30.562Z,3.50
2023-04-15T06:29:57.214Z,7.00
2023-04-15T06:32:23.871Z,4.50
2023-04-15T06:34:50.666Z,3.92
2023-04-15T06:37:17.363Z,4.47
2023-04-15T06:39:44.662Z,5.25
2023-04-15T06:42:12.040Z,7.70
2023-04-15T06:47:05.890Z,6.65
2023-04-15T06:49:33.693Z,5.22
2023-04-15T06:52:00.649Z,5.15
2023-04-15T06:54:27.428Z,5.32
2023-04-15T06:56:54.121Z,5.32
2023-04-15T06:59:20.757Z,5.43
2023-04-15T07:01:47.656Z,5.10
2023-04-15T07:04:14.379Z,5.22
2023-04-15T07:06:41.803Z,4.20
2023-04-15T07:11:36.392Z,3.00
2023-04-15T07:14:03.078Z,3.25
2023-04-15T07:16:30.112Z,2.80
2023-04-15T07:18:57.154Z,3.53
2023-04-15T07:21:25.854Z,3.65
2023-04-15T07:23:52.608Z,4.20
2023-04-15T07:26:19.438Z,3.63
2023-04-15T07:28:47.334Z,6.38
2023-04-15T07:31:14.854Z,4.13
2023-04-15T07:33:41.751Z,3.72
2023-04-15T07:36:08.679Z,4.57
2023-04-15T07:38:35.647Z,4.45
2023-04-15T07:41:02.519Z,3.45
2023-04-15T07:43:29.224Z,3.55
2023-04-15T07:45:56.065Z,3.60
2023-04-15T07:48:22.729Z,3.40
2023-04-15T07:50:49.413Z,3.60
2023-04-15T07:53:16.061Z,3.10
2023-04-15T07:55:42.703Z,3.10
2023-04-15T07:58:09.381Z,4.65
2023-04-15T08:00:38.174Z,5.47
2023-04-15T08:03:05.039Z,4.22
2023-04-15T08:05:31.778Z,4.43
2023-04-15T08:07:58.641Z,4.13
2023-04-15T08:10:25.588Z,4.47
2023-04-15T08:12:54.259Z,5.10
2023-04-15T08:15:21.543Z,3.90
2023-04-15T08:20:15.128Z,3.33
2023-04-15T08:22:42.464Z,3.05
2023-04-15T08:27:36.858Z,2.50
2023-04-15T08:30:05.178Z,2.50
2023-04-15T08:32:32.188Z,3.05
2023-04-15T08:34:59.148Z,2.75
2023-04-15T08:37:26.885Z,2.50
2023-04-15T08:39:53.592Z,2.53
2023-04-15T08:42:27.678Z,2.58
2023-04-15T08:44:55.577Z,2.20
2023-04-15T08:47:27.191Z,2.45
2023-04-15T08:49:57.164Z,4.85
2023-04-15T08:52:26.370Z,3.88
2023-04-15T08:54:57.548Z,2.85
2023-04-15T08:57:28.490Z,5.25
2023-04-15T08:59:58.546Z,3.17
2023-04-15T09:02:27.192Z,3.40
2023-04-15T09:04:54.147Z,7.13
2023-04-15T09:07:21.281Z,20.13
2023-04-15T09:09:48.768Z,12.00
2023-04-15T09:12:16.956Z,14.20
2023-04-15T09:14:48.217Z,3.72
2023-04-15T09:17:19.566Z,52.30
2023-04-15T09:19:46.655Z,18.27
2023-04-15T09:22:13.905Z,10.75
2023-04-15T09:24:42.225Z,3.20
2023-04-15T09:27:09.157Z,3.03
2023-04-15T09:29:36.905Z,3.35
2023-04-15T09:32:14.228Z,3.22
2023-04-15T09:34:41.168Z,4.10
2023-04-15T09:37:09.216Z,2.83
2023-04-15T09:39:47.369Z,3.85
2023-04-15T09:42:14.314Z,3.50
2023-04-15T09:44:41.051Z,2.50
2023-04-15T09:47:07.789Z,2.45
2023-04-15T09:49:34.600Z,3.42
2023-04-15T09:52:05.504Z,3.33
2023-04-15T09:54:38.048Z,2.65
2023-04-15T09:57:10.109Z,2.38
2023-04-15T09:59:37.123Z,2.33
2023-04-15T10:02:07.722Z,2.70
2023-04-15T10:04:39.542Z,2.50
2023-04-15T10:07:07.349Z,2.67
2023-04-15T10:09:36.472Z,4.38
2023-04-15T10:12:04.789Z,3.03
2023-04-15T10:14:34.920Z,7.97
2023-04-15T10:17:04.406Z,11.70
2023-04-15T10:19:37.582Z,6.80
2023-04-15T10:22:04.713Z,19.60
2023-04-15T10:24:33.636Z,4.85
2023-04-15T10:27:01.258Z,15.25
2023-04-15T10:29:28.293Z,14.73
2023-04-15T10:31:56.443Z,34.85
2023-04-15T10:34:26.811Z,8.63
2023-04-15T10:36:57.835Z,12.82
2023-04-15T10:39:33.862Z,8.48
2023-04-15T10:42:08.782Z,12.38
2023-04-15T10:44:57.122Z,14.75
2023-04-15T10:47:23.977Z,11.77
2023-04-15T10:49:57.003Z,10.25
2023-04-15T10:52:27.500Z,12.95
2023-04-15T10:55:23.308Z,7.53
2023-04-15T10:57:55.043Z,9.73
2023-04-15T11:00:25.988Z,6.88
2023-04-15T11:02:57.049Z,7.50
2023-04-15T11:05:51.075Z,4.95
2023-04-15T11:08:18.500Z,3.50
2023-04-15T11:10:45.094Z,2.60
2023-04-15T11:13:11.769Z,2.22
2023-04-15T11:15:42.211Z,2.00
2023-04-15T11:18:10.504Z,3.15
2023-04-15T11:20:39.009Z,4.45
2023-04-15T11:23:14.208Z,5.18
2023-04-15T11:25:43.077Z,3.70
2023-04-15T11:28:11.012Z,4.20
2023-04-15T11:30:38.791Z,2.95
2023-04-15T11:33:08.443Z,2.17
2023-04-15T11:35:35.794Z,2.13
2023-04-15T11:40:36.194Z,3.50
2023-04-15T11:43:11.170Z,2.42
2023-04-15T11:45:48.093Z,3.47
2023-04-15T11:48:14.962Z,3.70
2023-04-15T11:50:41.771Z,3.90
2023-04-15T11:53:10.091Z,3.28
2023-04-15T11:55:47.754Z,2.25
2023-04-15T11:58:20.626Z,3.47
2023-04-15T12:01:13.910Z,2.00
2023-04-15T12:03:49.272Z,3.00
2023-04-15T12:09:09.560Z,3.40
2023-04-15T12:11:48.237Z,4.43
2023-04-15T12:14:32.019Z,3.58
2023-04-15T12:17:00.150Z,2.13
2023-04-15T12:19:35.002Z,1.83
2023-04-15T12:22:06.782Z,3.25
2023-04-15T12:24:34.742Z,4.18
2023-04-15T12:27:05.477Z,4.85
2023-04-15T12:29:33.165Z,3.30
2023-04-15T12:32:12.831Z,2.15
2023-04-15T12:34:59.810Z,2.30
2023-04-15T12:37:26.558Z,2.42
2023-04-15T12:39:54.002Z,2.15
2023-04-15T12:42:20.907Z,1.77
2023-04-15T12:44:47.940Z,1.65
2023-04-15T12:47:14.944Z,2.00
2023-04-15T12:49:42.146Z,1.35
2023-04-15T12:52:09.032Z,1.27
2023-04-15T12:54:36.273Z,1.58
2023-04-15T12:59:33.504Z,1.70
2023-04-15T13:02:01.282Z,1.73
2023-04-15T13:04:30.661Z,1.48
2023-04-15T13:06:57.860Z,1.70
2023-04-15T13:09:25.426Z,1.83
2023-04-15T13:11:52.980Z,2.63
2023-04-15T13:14:26.014Z,1.92
2023-04-15T13:16:53.758Z,1.98
2023-04-15T13:19:20.584Z,2.17
2023-04-15T13:21:47.328Z,2.38
2023-04-15T13:24:13.973Z,2.45
2023-04-15T13:26:40.693Z,2.17
2023-04-15T13:29:07.411Z,2.40
2023-04-15T13:31:34.113Z,3.65
2023-04-15T13:34:00.889Z,2.28
2023-04-15T13:36:27.762Z,3.28
2023-04-15T13:39:00.912Z,3.70
2023-04-15T13:41:27.948Z,2.30
2023-04-15T13:44:01.296Z,3.25
2023-04-15T13:46:31.123Z,3.83
2023-04-15T13:48:57.768Z,4.85
2023-04-15T13:51:24.442Z,3.85
2023-04-15T13:53:51.107Z,2.95
2023-04-15T13:56:17.950Z,3.28
2023-04-15T13:58:44.839Z,3.22
2023-04-15T14:01:11.678Z,4.22
2023-04-15T14:03:38.637Z,3.80
2023-04-15T14:06:06.700Z,3.65
2023-04-15T14:08:33.844Z,3.10
2023-04-15T14:11:00.811Z,3.50
2023-04-15T14:13:27.894Z,4.13
2023-04-15T14:15:54.768Z,4.38
2023-04-15T14:18:21.722Z,3.10
2023-04-15T14:20:48.648Z,4.40
2023-04-15T14:23:15.522Z,5.57
2023-04-15T14:25:42.387Z,3.17
2023-04-15T14:28:09.222Z,3.08
2023-04-15T14:30:36.203Z,3.10
2023-04-15T14:33:03.424Z,2.83
2023-04-15T14:37:58.432Z,4.45
2023-04-15T14:40:25.952Z,4.50
2023-04-15T14:42:53.262Z,3.42
2023-04-15T14:47:47.994Z,3.08
2023-04-15T14:50:15.750Z,3.38
2023-04-15T14:52:42.875Z,4.00
2023-04-15T14:55:12.017Z,4.32
2023-04-15T14:57:39.901Z,4.90
2023-04-15T15:00:31.979Z,4.15
2023-04-15T15:02:59.027Z,3.05
2023-04-15T15:05:25.887Z,2.92
2023-04-15T15:07:52.635Z,3.08
2023-04-15T15:10:32.759Z,2.63
2023-04-15T15:13:10.301Z,3.05
2023-04-15T15:15:38.659Z,3.92
2023-04-15T15:18:05.625Z,3.45
2023-04-15T15:20:32.991Z,3.35
2023-04-15T15:25:26.858Z,3.50
2023-04-15T15:27:53.594Z,4.00
2023-04-15T15:30:20.616Z,3.15
2023-04-15T15:32:47.400Z,3.63
2023-04-15T15:35:14.057Z,3.80
2023-04-15T15:37:41.966Z,4.30
2023-04-15T15:40:09.270Z,3.55
2023-04-15T15:45:04.602Z,5.20
2023-04-15T15:47:31.388Z,4.70
2023-04-15T15:49:58.116Z,4.60
2023-04-15T15:52:24.783Z,5.88
2023-04-15T15:54:51.432Z,5.18
2023-04-15T15:57:18.073Z,4.72
2023-04-15T15:59:44.760Z,4.40
2023-04-15T16:02:12.384Z,4.30
2023-04-15T16:04:39.293Z,4.57
2023-04-15T16:07:06.321Z,4.00
2023-04-15T16:09:33.000Z,5.15
2023-04-15T16:11:59.680Z,5.95
2023-04-15T16:14:26.364Z,5.68
2023-04-15T16:16:53.586Z,4.72
2023-04-15T16:19:21.418Z,4.63
2023-04-15T16:21:48.365Z,7.63
2023-04-15T16:24:15.204Z,7.78
2023-04-15T16:26:42.068Z,6.80
2023-04-15T16:29:08.864Z,6.15
2023-04-15T16:31:37.341Z,5.55
2023-04-15T16:34:04.024Z,6.30
2023-04-15T16:36:32.406Z,7.05
2023-04-15T16:38:59.067Z,6.63
2023-04-15T16:41:25.918Z,4.68
2023-04-15T16:43:52.583Z,4.05
2023-04-15T16:46:19.310Z,6.28
2023-04-15T16:48:46.083Z,7.00
2023-04-15T16:51:12.763Z,6.68
2023-04-15T16:53:39.420Z,5.50
2023-04-15T16:56:06.219Z,5.43
2023-04-15T16:58:32.867Z,7.45
2023-04-15T17:00:59.894Z,7.18
2023-04-15T17:03:27.015Z,8.40
2023-04-15T17:05:53.847Z,8.10
2023-04-15T17:08:20.492Z,6.22
2023-04-15T17:10:47.235Z,7.28
2023-04-15T17:13:13.897Z,10.02
2023-04-15T17:15:40.894Z,9.18
2023-04-15T17:18:08.626Z,8.65
2023-04-15T17:20:35.462Z,12.40
2023-04-15T17:23:02.156Z,13.02
2023-04-15T17:25:30.547Z,18.38
2023-04-15T17:27:57.232Z,23.13
2023-04-15T17:30:24.139Z,20.30
2023-04-15T17:32:51.835Z,23.45
2023-04-15T17:35:18.738Z,21.63
2023-04-15T17:37:46.352Z,32.40
2023-04-15T17:40:13.763Z,13.50
2023-04-15T17:42:41.303Z,9.95
2023-04-15T17:45:08.847Z,8.60
2023-04-15T17:47:35.740Z,7.75
2023-04-15T17:50:02.481Z,7.30
2023-04-15T17:52:29.221Z,9.07
2023-04-15T17:54:55.909Z,11.27
2023-04-15T17:57:22.810Z,12.05
2023-04-15T17:59:49.525Z,14.40
2023-04-15T18:02:16.379Z,11.18
2023-04-15T18:04:43.381Z,9.20
2023-04-15T18:07:10.324Z,8.10
2023-04-15T18:09:37.036Z,7.10
2023-04-15T18:12:04.670Z,6.95
2023-04-15T18:14:34.848Z,7.75
2023-04-15T18:17:02.505Z,8.15
2023-04-15T18:21:56.446Z,7.40
2023-04-15T18:24:23.098Z,7.20
2023-04-15T18:26:49.885Z,7.35
2023-04-15T18:29:16.844Z,8.15
2023-04-15T18:31:43.881Z,7.78
2023-04-15T18:34:10.780Z,7.72
2023-04-15T18:36:37.467Z,8.73
2023-04-15T18:39:04.712Z,9.18
2023-04-15T18:41:31.704Z,8.88
2023-04-15T18:43:58.433Z,9.65
2023-04-15T18:46:25.252Z,9.07
2023-04-15T18:48:51.908Z,8.48
2023-04-15T18:51:18.608Z,11.43
2023-04-15T18:53:45.529Z,9.70
2023-04-15T18:56:12.230Z,10.18
2023-04-15T18:59:19.024Z,10.40
2023-04-15T19:01:26.282Z,12.60
2023-04-15T19:03:53.081Z,15.27
2023-04-15T19:06:19.809Z,14.15
2023-04-15T19:08:46.512Z,10.38
2023-04-15T19:11:13.198Z,9.23
2023-04-15T19:13:40.532Z,8.48
2023-04-15T19:18:34.091Z,6.50
2023-04-15T19:21:00.855Z,6.75
2023-04-15T19:23:27.619Z,6.10
2023-04-15T19:25:54.278Z,7.85
2023-04-15T19:28:20.997Z,6.88
2023-04-15T19:30:47.674Z,4.80
2023-04-15T19:33:14.470Z,6.50
2023-04-15T19:35:41.297Z,6.47
2023-04-15T19:38:08.070Z,6.47
2023-04-15T19:40:34.736Z,6.22
2023-04-15T19:43:01.411Z,7.00
2023-04-15T19:45:28.282Z,9.45
2023-04-15T19:47:55.075Z,8.88
2023-04-15T19:50:25.827Z,9.00
2023-04-15T19:52:53.512Z,9.10
2023-04-15T19:55:20.344Z,10.05
2023-04-15T19:57:47.081Z,10.25
2023-04-15T20:00:13.972Z,12.63
2023-04-15T20:02:40.970Z,8.38
2023-04-15T20:05:09.979Z,7.97
2023-04-15T20:07:37.048Z,6.72
2023-04-15T20:10:08.562Z,8.30
2023-04-15T20:12:50.712Z,9.35
2023-04-15T20:15:20.811Z,12.82
2023-04-15T20:17:47.592Z,10.05
2023-04-15T20:20:14.317Z,10.10
2023-04-15T20:22:41.429Z,10.27
2023-04-15T20:25:08.677Z,10.98
2023-04-15T20:27:35.414Z,10.40
2023-04-15T20:30:03.839Z,10.45
2023-04-15T20:32:35.074Z,11.55
2023-04-15T20:35:02.596Z,13.45
2023-04-15T20:37:30.801Z,15.98
2023-04-15T20:39:57.468Z,14.55
2023-04-15T20:42:24.176Z,15.30
2023-04-15T20:44:51.115Z,13.27
2023-04-15T20:47:17.938Z,10.80
2023-04-15T20:49:44.781Z,7.53
2023-04-15T20:52:11.438Z,7.80
2023-04-15T20:54:38.128Z,7.68
2023-04-15T20:57:04.832Z,7.88
2023-04-15T20:59:32.747Z,17.27
2023-04-15T21:01:59.508Z,11.02
2023-04-15T21:04:26.253Z,6.38
2023-04-15T21:07:18.235Z,5.55
2023-04-15T21:09:45.659Z,6.80
2023-04-15T21:12:12.430Z,5.70
2023-04-15T21:14:40.360Z,6.50
2023-04-15T21:17:11.124Z,6.82
2023-04-15T21:19:39.599Z,6.97
2023-04-15T21:22:06.616Z,7.47
2023-04-15T21:24:33.858Z,7.00
2023-04-15T21:29:40.682Z,6.18
2023-04-15T21:32:08.544Z,5.83
2023-04-15T21:34:36.350Z,7.28
2023-04-15T21:37:08.323Z,6.63
2023-04-15T21:39:43.542Z,5.50
2023-04-15T21:42:14.483Z,6.70
2023-04-15T21:44:42.751Z,6.18
2023-04-15T21:47:11.167Z,7.55
2023-04-15T21:49:38.389Z,6.60
2023-04-15T21:52:06.050Z,7.00
2023-04-15T21:54:34.038Z,7.38
2023-04-15T21:57:04.768Z,7.03
2023-04-15T21:59:36.932Z,7.05
2023-04-15T22:02:13.637Z,7.50
2023-04-15T22:04:53.141Z,7.65
2023-04-15T22:07:27.629Z,6.88
2023-04-15T22:09:55.117Z,6.35
2023-04-15T22:12:23.193Z,5.85
2023-04-15T22:14:59.958Z,5.72
2023-04-15T22:17:39.966Z,5.45
2023-04-15T22:20:10.645Z,5.07
2023-04-15T22:22:43.284Z,5.40
2023-04-15T22:25:14.707Z,4.97
2023-04-15T22:27:41.379Z,5.43
2023-04-15T22:30:08.984Z,4.28
2023-04-15T22:32:35.858Z,5.15
2023-04-15T22:35:03.068Z,4.90
2023-04-15T22:39:57.611Z,5.50
2023-04-15T22:42:24.587Z,5.78
2023-04-15T22:44:51.561Z,5.00
2023-04-15T22:47:18.881Z,5.65
2023-04-15T22:52:17.120Z,4.70
2023-04-15T22:54:50.635Z,5.68
2023-04-15T22:57:17.282Z,5.40
2023-04-15T22:59:44.111Z,5.43
2023-04-15T23:02:10.951Z,5.70
2023-04-15T23:04:37.757Z,6.63
2023-04-15T23:07:04.574Z,7.10
2023-04-15T23:09:31.264Z,6.80
2023-04-15T23:11:58.101Z,6.63
2023-04-15T23:14:26.208Z,5.78
2023-04-15T23:16:52.897Z,6.50
2023-04-15T23:19:19.636Z,7.05
2023-04-15T23:21:46.436Z,6.90
2023-04-15T23:24:13.149Z,7.40
2023-04-15T23:26:39.859Z,7.25
2023-04-15T23:29:07.721Z,4.80
2023-04-15T23:31:35.442Z,7.20
2023-04-15T23:34:05.163Z,8.38
2023-04-15T23:36:32.209Z,7.93
2023-04-15T23:38:59.035Z,8.70
2023-04-15T23:41:25.895Z,7.63
2023-04-15T23:43:52.569Z,7.93
2023-04-15T23:46:19.257Z,5.22
2023-04-15T23:48:47.715Z,7.75
2023-04-15T23:51:14.546Z,8.10
2023-04-15T23:53:41.194Z,8.02
2023-04-15T23:56:08.137Z,7.45
2023-04-15T23:58:34.851Z,7.95
